createdAt,value
2018-09-26T00:01:22.802Z,4.10
2018-09-26T00:03:56.728Z,5.30
2018-09-26T00:06:25.539Z,5.00
2018-09-26T00:08:54.342Z,4.47
2018-09-26T00:11:23.095Z,5.03
2018-09-26T00:13:51.945Z,4.83
2018-09-26T00:16:20.785Z,4.30
2018-09-26T00:18:49.585Z,4.20
2018-09-26T00:21:18.381Z,5.50
2018-09-26T00:23:47.177Z,6.00
2018-09-26T00:26:15.991Z,6.53
2018-09-26T00:28:44.737Z,6.70
2018-09-26T00:31:13.497Z,6.17
2018-09-26T00:33:42.297Z,4.83
2018-09-26T00:36:11.126Z,5.60
2018-09-26T00:38:39.861Z,6.00
2018-09-26T00:41:08.638Z,6.60
2018-09-26T00:43:37.402Z,7.50
2018-09-26T00:46:06.274Z,6.50
2018-09-26T00:48:35.053Z,5.90
2018-09-26T00:51:03.779Z,5.50
2018-09-26T00:53:32.606Z,5.80
2018-09-26T00:56:02.051Z,4.40
2018-09-26T00:58:30.812Z,5.27
2018-09-26T01:00:59.621Z,5.73
2018-09-26T01:03:28.546Z,6.03
2018-09-26T01:05:57.362Z,5.80
2018-09-26T01:08:26.182Z,6.30
2018-09-26T01:10:54.989Z,5.83
2018-09-26T01:13:23.799Z,6.20
2018-09-26T01:15:52.590Z,5.93
2018-09-26T01:18:21.479Z,6.20
2018-09-26T01:20:51.139Z,6.13
2018-09-26T01:23:19.931Z,6.00
2018-09-26T01:25:48.794Z,6.23
2018-09-26T01:28:17.997Z,6.10
2018-09-26T01:30:46.773Z,6.13
2018-09-26T01:33:15.585Z,6.77
2018-09-26T01:35:44.497Z,7.67
2018-09-26T01:38:13.277Z,6.27
2018-09-26T01:40:42.192Z,5.00
2018-09-26T01:43:10.955Z,6.30
2018-09-26T01:45:39.747Z,6.83
2018-09-26T01:48:08.676Z,7.27
2018-09-26T01:50:37.513Z,8.10
2018-09-26T01:53:06.539Z,8.50
2018-09-26T01:55:35.357Z,9.00
2018-09-26T01:58:04.446Z,9.30
2018-09-26T02:00:33.248Z,8.83
2018-09-26T02:03:02.025Z,9.87
2018-09-26T02:05:30.821Z,9.77
2018-09-26T02:07:59.575Z,10.10
2018-09-26T02:10:28.432Z,8.90
2018-09-26T02:12:57.232Z,8.70
2018-09-26T02:15:26.014Z,8.90
2018-09-26T02:17:54.797Z,10.47
2018-09-26T02:20:23.874Z,9.83
2018-09-26T02:22:53.184Z,10.77
2018-09-26T02:25:22.027Z,11.27
2018-09-26T02:27:50.913Z,9.87
2018-09-26T02:30:19.733Z,9.13
2018-09-26T02:32:48.494Z,9.70
2018-09-26T02:35:17.408Z,10.00
2018-09-26T02:37:46.185Z,9.03
2018-09-26T02:40:15.038Z,8.43
2018-09-26T02:42:43.958Z,9.17
2018-09-26T02:45:12.786Z,8.70
2018-09-26T02:47:41.556Z,9.43
2018-09-26T02:50:10.361Z,9.30
2018-09-26T02:52:39.129Z,9.40
2018-09-26T02:55:07.984Z,10.20
2018-09-26T02:57:36.805Z,9.70
2018-09-26T03:00:05.739Z,9.80
2018-09-26T03:02:34.539Z,7.97
2018-09-26T03:05:03.309Z,9.97
2018-09-26T03:07:32.582Z,9.70
2018-09-26T03:10:01.334Z,9.27
2018-09-26T03:12:30.080Z,9.50
2018-09-26T03:14:58.817Z,9.83
2018-09-26T03:17:27.596Z,9.57
2018-09-26T03:19:56.710Z,9.57
2018-09-26T03:22:25.534Z,8.70
2018-09-26T03:24:54.322Z,8.73
2018-09-26T03:27:23.159Z,9.50
2018-09-26T03:29:51.918Z,8.67
2018-09-26T03:32:20.705Z,8.80
2018-09-26T03:34:49.482Z,8.43
2018-09-26T03:37:18.225Z,9.40
2018-09-26T03:39:46.997Z,10.00
2018-09-26T03:42:15.846Z,8.37
2018-09-26T03:44:44.576Z,9.97
2018-09-26T03:47:13.649Z,8.67
2018-09-26T03:49:42.483Z,8.83
2018-09-26T03:52:11.252Z,9.60
2018-09-26T03:54:40.062Z,7.40
2018-09-26T03:57:08.924Z,8.53
2018-09-26T03:59:37.707Z,8.50
2018-09-26T04:02:06.553Z,7.90
2018-09-26T04:04:35.347Z,7.43
2018-09-26T04:07:04.251Z,7.00
2018-09-26T04:09:35.024Z,7.90
2018-09-26T04:12:04.113Z,7.50
2018-09-26T04:14:33.039Z,6.93
2018-09-26T04:17:01.850Z,7.60
2018-09-26T04:19:30.859Z,6.57
2018-09-26T04:21:59.694Z,6.40
2018-09-26T04:24:28.544Z,6.70
2018-09-26T04:26:57.562Z,7.30
2018-09-26T04:29:26.191Z,7.03
2018-09-26T04:31:54.958Z,7.90
2018-09-26T04:34:23.771Z,6.87
2018-09-26T04:36:52.869Z,6.70
2018-09-26T04:39:22.017Z,6.70
2018-09-26T04:41:50.805Z,7.10
2018-09-26T04:44:19.832Z,6.40
2018-09-26T04:46:48.608Z,7.20
2018-09-26T04:49:17.646Z,6.10
2018-09-26T04:51:46.440Z,5.97
2018-09-26T04:54:15.238Z,6.20
2018-09-26T04:56:44.058Z,6.57
2018-09-26T04:59:12.828Z,6.30
2018-09-26T05:01:41.625Z,5.87
2018-09-26T05:04:10.384Z,5.20
2018-09-26T05:06:39.201Z,5.60
2018-09-26T05:09:09.944Z,4.83
2018-09-26T05:11:38.726Z,4.90
2018-09-26T05:14:08.062Z,5.07
2018-09-26T05:16:36.867Z,5.47
2018-09-26T05:19:05.710Z,4.57
2018-09-26T05:21:34.519Z,4.77
2018-09-26T05:24:03.385Z,5.50
2018-09-26T05:26:32.138Z,4.80
2018-09-26T05:29:00.884Z,4.07
2018-09-26T05:31:29.711Z,4.70
2018-09-26T05:33:58.467Z,5.40
2018-09-26T05:36:27.262Z,4.23
2018-09-26T05:38:56.364Z,5.30
2018-09-26T05:41:25.126Z,4.30
2018-09-26T05:43:53.852Z,4.10
2018-09-26T05:46:22.812Z,4.73
2018-09-26T05:48:51.602Z,4.80
2018-09-26T05:51:20.395Z,4.57
2018-09-26T05:53:49.225Z,4.40
2018-09-26T05:56:19.631Z,4.90
2018-09-26T05:58:48.392Z,4.43
2018-09-26T06:01:17.219Z,7.00
2018-09-26T06:03:46.121Z,7.00
2018-09-26T06:06:14.916Z,5.50
2018-09-26T06:08:43.710Z,4.60
2018-09-26T06:11:12.493Z,4.00
2018-09-26T06:13:41.277Z,3.70
2018-09-26T06:16:10.556Z,5.17
2018-09-26T06:18:39.790Z,3.70
2018-09-26T06:21:08.695Z,4.80
2018-09-26T06:23:37.490Z,4.10
2018-09-26T06:26:06.428Z,4.03
2018-09-26T06:28:35.225Z,4.00
2018-09-26T06:31:03.991Z,3.47
2018-09-26T06:33:32.838Z,3.70
2018-09-26T06:36:01.686Z,4.07
2018-09-26T06:38:30.516Z,4.13
2018-09-26T06:40:59.301Z,4.30
2018-09-26T06:43:28.124Z,3.83
2018-09-26T06:45:56.932Z,3.40
2018-09-26T06:48:25.752Z,3.80
2018-09-26T06:50:54.560Z,3.40
2018-09-26T06:53:23.479Z,2.97
2018-09-26T06:55:52.274Z,3.63
2018-09-26T06:58:21.158Z,3.50
2018-09-26T07:00:49.977Z,3.53
2018-09-26T07:03:18.747Z,3.30
2018-09-26T07:05:47.576Z,3.10
2018-09-26T07:08:16.374Z,2.90
2018-09-26T07:10:45.251Z,3.30
2018-09-26T07:13:14.034Z,3.23
2018-09-26T07:15:42.885Z,2.97
2018-09-26T07:18:11.630Z,2.73
2018-09-26T07:20:40.456Z,2.50
2018-09-26T07:23:09.210Z,3.10
2018-09-26T07:25:38.006Z,2.97
2018-09-26T07:28:06.844Z,3.00
2018-09-26T07:30:35.619Z,3.57
2018-09-26T07:33:04.955Z,2.90
2018-09-26T07:35:33.824Z,2.70
2018-09-26T07:38:02.707Z,3.30
2018-09-26T07:40:31.509Z,3.00
2018-09-26T07:43:00.292Z,3.67
2018-09-26T07:45:29.154Z,3.27
2018-09-26T07:47:57.941Z,3.43
2018-09-26T07:50:26.784Z,2.70
2018-09-26T07:52:55.568Z,3.00
2018-09-26T07:55:24.365Z,3.60
2018-09-26T07:57:53.190Z,3.10
2018-09-26T08:00:22.005Z,4.17
2018-09-26T08:02:50.809Z,2.97
2018-09-26T08:05:19.700Z,3.13
2018-09-26T08:07:48.563Z,3.07
2018-09-26T08:10:17.372Z,2.83
2018-09-26T08:12:46.178Z,3.90
2018-09-26T08:15:14.945Z,3.27
2018-09-26T08:17:43.757Z,3.07
2018-09-26T08:20:12.553Z,3.40
2018-09-26T08:22:41.326Z,2.60
2018-09-26T08:25:10.094Z,3.03
2018-09-26T08:27:39.044Z,2.90
2018-09-26T08:30:08.162Z,2.93
2018-09-26T08:32:36.946Z,2.87
2018-09-26T08:35:05.831Z,3.57
2018-09-26T08:37:34.665Z,3.37
2018-09-26T08:40:03.461Z,3.87
2018-09-26T08:42:32.225Z,3.10
2018-09-26T08:45:01.054Z,2.80
2018-09-26T08:47:29.854Z,3.43
2018-09-26T08:50:00.636Z,3.20
2018-09-26T08:52:29.481Z,3.33
2018-09-26T08:54:58.277Z,2.90
2018-09-26T08:57:27.120Z,3.27
2018-09-26T08:59:55.913Z,3.50
2018-09-26T09:02:24.681Z,3.07
2018-09-26T09:04:53.461Z,3.07
2018-09-26T09:07:22.218Z,3.33
2018-09-26T09:09:51.028Z,3.60
2018-09-26T09:12:19.867Z,3.30
2018-09-26T09:14:48.781Z,3.53
2018-09-26T09:17:17.449Z,3.10
2018-09-26T09:19:46.329Z,3.20
2018-09-26T09:22:15.196Z,3.30
2018-09-26T09:24:44.328Z,3.07
2018-09-26T09:27:13.173Z,4.20
2018-09-26T09:29:41.873Z,3.30
2018-09-26T09:32:10.704Z,2.87
2018-09-26T09:34:39.496Z,2.70
2018-09-26T09:37:08.292Z,3.37
2018-09-26T09:39:37.065Z,3.10
2018-09-26T09:42:05.829Z,3.50
2018-09-26T09:44:34.796Z,3.43
2018-09-26T09:47:03.560Z,3.17
2018-09-26T09:49:32.368Z,2.63
2018-09-26T09:52:01.125Z,3.00
2018-09-26T09:54:29.949Z,3.03
2018-09-26T09:56:58.861Z,3.10
2018-09-26T09:59:27.666Z,2.90
2018-09-26T10:01:56.454Z,3.10
2018-09-26T10:04:25.569Z,3.47
2018-09-26T10:06:54.435Z,2.80
2018-09-26T10:09:23.177Z,3.47
2018-09-26T10:11:51.963Z,2.97
2018-09-26T10:14:20.830Z,2.80
2018-09-26T10:16:49.662Z,3.10
2018-09-26T10:19:18.497Z,3.13
2018-09-26T10:21:47.271Z,4.50
2018-09-26T10:24:16.045Z,3.60
2018-09-26T10:26:44.989Z,2.97
2018-09-26T10:29:13.780Z,3.30
2018-09-26T10:31:49.044Z,3.33
2018-09-26T10:34:17.876Z,3.20
2018-09-26T10:36:46.637Z,3.10
2018-09-26T10:39:15.437Z,3.50
2018-09-26T10:41:44.241Z,3.00
2018-09-26T10:44:13.135Z,3.30
2018-09-26T10:46:41.950Z,3.30
2018-09-26T10:49:10.729Z,3.23
2018-09-26T10:51:39.492Z,3.60
2018-09-26T10:54:08.426Z,2.93
2018-09-26T10:56:37.788Z,3.37
2018-09-26T10:59:06.383Z,2.57
2018-09-26T11:01:35.139Z,3.07
2018-09-26T11:04:03.957Z,3.60
2018-09-26T11:06:32.767Z,3.30
2018-09-26T11:09:01.632Z,2.90
2018-09-26T11:11:30.513Z,2.80
2018-09-26T11:13:59.684Z,3.37
2018-09-26T11:16:28.542Z,2.43
2018-09-26T11:18:57.516Z,3.47
2018-09-26T11:21:26.289Z,3.43
2018-09-26T11:23:55.250Z,3.80
2018-09-26T11:26:25.193Z,3.07
2018-09-26T11:28:54.101Z,3.37
2018-09-26T11:31:24.209Z,3.30
2018-09-26T11:33:53.431Z,3.60
2018-09-26T11:36:22.150Z,3.70
2018-09-26T11:38:51.317Z,3.10
2018-09-26T11:41:20.176Z,3.00
2018-09-26T11:43:49.097Z,3.77
2018-09-26T11:46:17.966Z,3.57
2018-09-26T11:48:46.834Z,3.50
2018-09-26T11:51:15.720Z,3.60
2018-09-26T11:53:44.510Z,3.80
2018-09-26T11:56:13.604Z,4.27
2018-09-26T11:58:42.401Z,3.70
2018-09-26T12:01:11.477Z,5.40
2018-09-26T12:03:40.326Z,3.37
2018-09-26T12:06:09.271Z,4.90
2018-09-26T12:08:38.083Z,4.30
2018-09-26T12:11:08.728Z,4.77
2018-09-26T12:13:37.604Z,4.30
2018-09-26T12:16:06.403Z,3.90
2018-09-26T12:18:35.224Z,5.20
2018-09-26T12:21:04.052Z,4.67
2018-09-26T12:23:32.893Z,3.93
2018-09-26T12:26:01.771Z,4.00
2018-09-26T12:28:30.593Z,4.20
2018-09-26T12:30:59.404Z,3.50
2018-09-26T12:33:28.151Z,3.60
2018-09-26T12:35:56.924Z,4.17
2018-09-26T12:38:25.759Z,4.37
2018-09-26T12:40:54.523Z,4.03
2018-09-26T12:43:24.735Z,4.03
2018-09-26T12:45:55.158Z,3.60
2018-09-26T12:48:25.106Z,4.87
2018-09-26T12:50:55.961Z,4.20
2018-09-26T12:53:25.085Z,4.30
2018-09-26T12:55:53.816Z,3.77
2018-09-26T12:58:22.699Z,4.30
2018-09-26T13:00:51.509Z,4.37
2018-09-26T13:03:20.263Z,3.77
2018-09-26T13:05:49.071Z,5.07
2018-09-26T13:08:17.929Z,3.83
2018-09-26T13:10:46.730Z,4.50
2018-09-26T13:13:15.477Z,4.07
2018-09-26T13:15:44.281Z,3.73
2018-09-26T13:18:13.156Z,3.23
2018-09-26T13:20:43.628Z,3.67
2018-09-26T13:23:13.500Z,4.00
2018-09-26T13:25:42.676Z,3.83
2018-09-26T13:28:11.918Z,4.23
2018-09-26T13:30:42.404Z,4.20
2018-09-26T13:33:11.992Z,3.50
2018-09-26T13:35:40.842Z,3.37
2018-09-26T13:38:13.444Z,3.60
2018-09-26T13:40:51.761Z,3.47
2018-09-26T13:43:20.906Z,3.90
2018-09-26T13:45:49.763Z,3.80
2018-09-26T13:48:18.603Z,3.87
2018-09-26T13:50:47.310Z,3.50
2018-09-26T13:53:16.113Z,3.97
2018-09-26T13:55:44.928Z,4.20
2018-09-26T13:58:13.822Z,3.57
2018-09-26T14:00:42.606Z,3.60
2018-09-26T14:03:11.436Z,3.97
2018-09-26T14:05:40.200Z,3.73
2018-09-26T14:08:09.017Z,3.27
2018-09-26T14:10:38.259Z,3.63
2018-09-26T14:13:15.133Z,3.90
2018-09-26T14:15:44.918Z,3.70
2018-09-26T14:18:13.855Z,3.40
2018-09-26T14:20:42.628Z,3.53
2018-09-26T14:23:11.820Z,3.40
2018-09-26T14:25:40.633Z,3.33
2018-09-26T14:28:16.004Z,3.23
2018-09-26T14:30:44.946Z,3.40
2018-09-26T14:33:13.655Z,2.97
2018-09-26T14:35:42.457Z,4.17
2018-09-26T14:38:11.284Z,3.57
2018-09-26T14:40:40.065Z,3.70
2018-09-26T14:43:08.868Z,3.33
2018-09-26T14:45:37.727Z,3.77
2018-09-26T14:48:06.615Z,4.37
2018-09-26T14:50:36.476Z,4.20
2018-09-26T14:53:06.252Z,3.57
2018-09-26T14:55:36.221Z,4.00
2018-09-26T14:58:06.514Z,3.53
2018-09-26T15:00:39.037Z,3.73
2018-09-26T15:03:08.157Z,3.50
2018-09-26T15:05:36.938Z,3.77
2018-09-26T15:08:05.936Z,3.90
2018-09-26T15:10:34.756Z,4.30
2018-09-26T15:13:03.546Z,4.40
2018-09-26T15:15:32.325Z,3.40
2018-09-26T15:18:01.274Z,3.63
2018-09-26T15:20:30.158Z,3.70
2018-09-26T15:22:59.057Z,4.93
2018-09-26T15:25:28.338Z,3.27
2018-09-26T15:27:57.134Z,3.17
2018-09-26T15:30:25.960Z,2.90
2018-09-26T15:32:54.774Z,3.77
2018-09-26T15:35:23.575Z,3.47
2018-09-26T15:37:52.849Z,3.50
2018-09-26T15:40:21.703Z,3.63
2018-09-26T15:42:50.575Z,3.47
2018-09-26T15:45:19.413Z,3.27
2018-09-26T15:47:48.194Z,3.40
2018-09-26T15:50:20.654Z,3.80
2018-09-26T15:52:50.146Z,3.73
2018-09-26T15:55:18.911Z,3.43
2018-09-26T15:57:48.503Z,3.17
2018-09-26T16:00:17.329Z,3.07
2018-09-26T16:02:46.179Z,2.93
2018-09-26T16:05:15.037Z,2.33
2018-09-26T16:07:47.428Z,2.27
2018-09-26T16:10:17.409Z,2.10
2018-09-26T16:12:46.442Z,2.40
2018-09-26T16:15:15.241Z,2.40
2018-09-26T16:17:44.041Z,2.23
2018-09-26T16:20:12.861Z,2.80
2018-09-26T16:22:41.683Z,2.80
2018-09-26T16:25:10.473Z,3.03
2018-09-26T16:27:39.296Z,2.30
2018-09-26T16:30:12.150Z,3.27
2018-09-26T16:32:41.001Z,3.33
2018-09-26T16:35:10.647Z,3.30
2018-09-26T16:37:45.127Z,2.70
2018-09-26T16:40:14.250Z,3.47
2018-09-26T16:42:43.154Z,3.10
2018-09-26T16:45:12.066Z,2.50
2018-09-26T16:47:41.757Z,2.60
2018-09-26T16:50:10.660Z,2.20
2018-09-26T16:52:39.391Z,2.30
2018-09-26T16:55:08.209Z,2.00
2018-09-26T16:57:36.998Z,2.33
2018-09-26T17:00:05.953Z,3.40
2018-09-26T17:02:34.882Z,2.83
2018-09-26T17:05:03.868Z,2.13
2018-09-26T17:07:32.877Z,1.87
2018-09-26T17:10:01.637Z,1.67
2018-09-26T17:12:30.451Z,2.10
2018-09-26T17:15:09.297Z,2.77
2018-09-26T17:17:38.537Z,2.40
2018-09-26T17:20:07.434Z,2.10
2018-09-26T17:22:42.009Z,1.90
2018-09-26T17:25:12.709Z,2.80
2018-09-26T17:27:42.571Z,2.37
2018-09-26T17:30:14.200Z,2.43
2018-09-26T17:32:43.462Z,2.17
2018-09-26T17:35:12.263Z,2.07
2018-09-26T17:37:41.156Z,2.47
2018-09-26T17:40:11.269Z,2.50
2018-09-26T17:42:40.088Z,2.40
2018-09-26T17:45:09.797Z,2.43
2018-09-26T17:47:38.686Z,2.20
2018-09-26T17:50:07.610Z,2.00
2018-09-26T17:52:36.398Z,2.20
2018-09-26T17:55:05.705Z,2.90
2018-09-26T17:57:34.541Z,2.30
2018-09-26T18:00:03.707Z,2.47
2018-09-26T18:02:32.495Z,2.57
2018-09-26T18:05:01.405Z,2.43
2018-09-26T18:07:30.238Z,2.50
2018-09-26T18:09:59.042Z,2.40
2018-09-26T18:12:27.849Z,2.30
2018-09-26T18:14:56.747Z,2.60
2018-09-26T18:17:29.101Z,2.60
2018-09-26T18:19:57.859Z,2.87
2018-09-26T18:22:26.633Z,2.47
2018-09-26T18:24:55.467Z,2.60
2018-09-26T18:27:24.281Z,2.40
2018-09-26T18:29:53.053Z,2.23
2018-09-26T18:32:22.262Z,2.57
2018-09-26T18:34:51.098Z,2.97
2018-09-26T18:37:19.845Z,2.43
2018-09-26T18:39:48.731Z,2.43
2018-09-26T18:42:17.858Z,2.70
2018-09-26T18:44:46.585Z,2.40
2018-09-26T18:47:15.420Z,2.10
2018-09-26T18:49:44.252Z,2.20
2018-09-26T18:52:13.057Z,2.93
2018-09-26T18:54:42.178Z,2.63
2018-09-26T18:57:11.162Z,2.77
2018-09-26T18:59:40.551Z,2.60
2018-09-26T19:02:11.093Z,2.70
2018-09-26T19:04:40.447Z,2.63
2018-09-26T19:07:09.849Z,2.40
2018-09-26T19:09:39.504Z,2.60
2018-09-26T19:12:10.403Z,2.63
2018-09-26T19:14:39.914Z,2.83
2018-09-26T19:17:11.162Z,2.57
2018-09-26T19:19:41.920Z,3.17
2018-09-26T19:22:13.880Z,3.17
2018-09-26T19:24:45.818Z,2.87
2018-09-26T19:27:15.726Z,3.87
2018-09-26T19:29:46.288Z,3.10
2018-09-26T19:32:18.363Z,3.00
2018-09-26T19:34:47.541Z,2.80
2018-09-26T19:37:17.774Z,3.20
2018-09-26T19:39:48.526Z,3.40
2018-09-26T19:42:17.437Z,3.00
2018-09-26T19:44:46.497Z,3.30
2018-09-26T19:47:15.356Z,3.10
2018-09-26T19:49:46.077Z,3.63
2018-09-26T19:52:14.934Z,3.07
2018-09-26T19:54:43.737Z,4.40
2018-09-26T19:57:12.528Z,3.03
2018-09-26T19:59:41.380Z,4.43
2018-09-26T20:02:10.306Z,4.10
2018-09-26T20:04:39.104Z,3.20
2018-09-26T20:07:10.256Z,4.30
2018-09-26T20:09:40.015Z,3.93
2018-09-26T20:12:11.749Z,4.33
2018-09-26T20:14:41.907Z,4.30
2018-09-26T20:17:12.020Z,3.63
2018-09-26T20:19:41.925Z,4.50
2018-09-26T20:22:11.599Z,4.47
2018-09-26T20:24:41.691Z,4.03
2018-09-26T20:27:16.484Z,3.90
2018-09-26T20:29:59.842Z,4.00
2018-09-26T20:32:29.413Z,4.07
2018-09-26T20:34:58.304Z,3.90
2018-09-26T20:37:27.145Z,4.47
2018-09-26T20:39:55.926Z,4.67
2018-09-26T20:42:24.730Z,4.10
2018-09-26T20:44:53.588Z,4.17
2018-09-26T20:47:22.324Z,5.47
2018-09-26T20:49:51.168Z,4.70
2018-09-26T20:52:19.954Z,4.97
2018-09-26T20:54:48.746Z,4.00
2018-09-26T20:57:17.565Z,4.97
2018-09-26T20:59:46.388Z,4.90
2018-09-26T21:02:15.148Z,4.27
2018-09-26T21:04:43.977Z,4.33
2018-09-26T21:07:12.781Z,4.17
2018-09-26T21:09:41.533Z,5.70
2018-09-26T21:12:10.436Z,5.00
2018-09-26T21:14:39.237Z,4.67
2018-09-26T21:17:08.072Z,5.03
2018-09-26T21:19:36.857Z,4.30
2018-09-26T21:22:05.645Z,4.10
2018-09-26T21:24:34.452Z,4.67
2018-09-26T21:27:03.254Z,4.50
2018-09-26T21:29:32.042Z,4.23
2018-09-26T21:32:00.889Z,4.57
2018-09-26T21:34:29.747Z,4.80
2018-09-26T21:36:58.518Z,5.13
2018-09-26T21:39:27.441Z,4.93
2018-09-26T21:41:56.261Z,6.13
2018-09-26T21:44:25.123Z,4.23
2018-09-26T21:46:53.885Z,4.97
2018-09-26T21:49:22.679Z,5.50
2018-09-26T21:51:51.616Z,5.30
2018-09-26T21:54:20.417Z,4.57
2018-09-26T21:56:49.148Z,5.10
2018-09-26T21:59:17.927Z,4.97
2018-09-26T22:01:46.739Z,5.40
2018-09-26T22:04:15.516Z,4.97
2018-09-26T22:06:44.267Z,4.83
2018-09-26T22:09:13.118Z,5.30
2018-09-26T22:11:41.907Z,5.30
2018-09-26T22:14:10.820Z,5.07
2018-09-26T22:16:39.555Z,5.70
2018-09-26T22:19:08.356Z,5.00
2018-09-26T22:21:37.151Z,6.00
2018-09-26T22:24:05.948Z,6.40
2018-09-26T22:26:34.773Z,5.53
2018-09-26T22:29:03.581Z,5.27
2018-09-26T22:31:32.356Z,5.90
2018-09-26T22:34:01.137Z,4.60
2018-09-26T22:36:29.938Z,5.30
2018-09-26T22:38:58.728Z,6.00
2018-09-26T22:41:27.532Z,5.50
2018-09-26T22:43:56.350Z,5.80
2018-09-26T22:46:25.205Z,5.37
2018-09-26T22:48:54.038Z,5.83
2018-09-26T22:51:22.888Z,4.97
2018-09-26T22:53:51.635Z,5.10
2018-09-26T22:56:20.437Z,4.87
2018-09-26T22:58:49.216Z,5.53
2018-09-26T23:01:17.993Z,5.13
2018-09-26T23:03:46.793Z,6.20
2018-09-26T23:06:15.561Z,5.03
2018-09-26T23:08:44.394Z,4.80
2018-09-26T23:11:13.147Z,5.80
2018-09-26T23:13:41.874Z,5.80
2018-09-26T23:16:10.712Z,5.90
2018-09-26T23:18:39.482Z,5.50
2018-09-26T23:21:08.243Z,5.90
2018-09-26T23:23:37.069Z,6.00
2018-09-26T23:26:05.941Z,6.00
2018-09-26T23:28:34.713Z,5.47
2018-09-26T23:31:03.493Z,5.83
2018-09-26T23:33:32.323Z,6.57
2018-09-26T23:36:01.205Z,6.17
2018-09-26T23:38:30.019Z,6.10
2018-09-26T23:40:58.822Z,5.83
2018-09-26T23:43:27.605Z,6.73
2018-09-26T23:45:56.396Z,6.77
2018-09-26T23:48:25.165Z,6.83
2018-09-26T23:50:53.937Z,6.60
2018-09-26T23:53:22.733Z,5.33
2018-09-26T23:55:51.496Z,6.67
2018-09-26T23:58:20.286Z,6.23
